createdAt,value
2018-12-04T00:01:08.369Z,10.70
2018-12-04T00:03:35.924Z,10.70
2018-12-04T00:06:03.439Z,10.70
2018-12-04T00:08:30.984Z,10.80
2018-12-04T00:10:58.514Z,10.60
2018-12-04T00:13:26.052Z,10.70
2018-12-04T00:15:53.652Z,10.70
2018-12-04T00:18:21.207Z,10.60
2018-12-04T00:20:48.727Z,10.70
2018-12-04T00:23:16.276Z,10.60
2018-12-04T00:25:43.791Z,10.60
2018-12-04T00:28:11.340Z,10.60
2018-12-04T00:30:38.866Z,10.50
2018-12-04T00:33:06.407Z,10.50
2018-12-04T00:35:33.924Z,10.60
2018-12-04T00:38:01.467Z,10.60
2018-12-04T00:40:28.992Z,10.60
2018-12-04T00:42:56.659Z,10.60
2018-12-04T00:45:24.181Z,10.60
2018-12-04T00:47:51.728Z,10.70
2018-12-04T00:50:19.246Z,10.60
2018-12-04T00:52:46.796Z,10.60
2018-12-04T00:55:14.319Z,10.70
2018-12-04T00:57:41.869Z,10.70
2018-12-04T01:00:09.464Z,10.70
2018-12-04T01:02:37.003Z,10.60
2018-12-04T01:05:04.680Z,10.70
2018-12-04T01:07:32.223Z,10.60
2018-12-04T01:09:59.741Z,10.50
2018-12-04T01:12:27.292Z,10.50
2018-12-04T01:14:54.859Z,10.60
2018-12-04T01:17:22.376Z,10.60
2018-12-04T01:19:49.920Z,10.60
2018-12-04T01:22:17.516Z,10.60
2018-12-04T01:24:45.066Z,10.70
2018-12-04T01:27:12.587Z,10.60
2018-12-04T01:29:40.133Z,10.70
2018-12-04T01:32:07.663Z,10.70
2018-12-04T01:34:35.211Z,10.70
2018-12-04T01:37:02.732Z,10.70
2018-12-04T01:39:30.272Z,10.60
2018-12-04T01:41:57.790Z,10.70
2018-12-04T01:44:25.336Z,10.70
2018-12-04T01:46:52.855Z,10.60
2018-12-04T01:49:20.476Z,10.60
2018-12-04T01:51:48.003Z,10.70
2018-12-04T01:54:15.547Z,10.70
2018-12-04T01:56:43.064Z,10.70
2018-12-04T01:59:10.613Z,10.70
2018-12-04T02:01:38.133Z,10.70
2018-12-04T02:04:05.679Z,10.70
2018-12-04T02:06:33.269Z,10.70
2018-12-04T02:09:00.792Z,10.60
2018-12-04T02:11:28.340Z,10.60
2018-12-04T02:13:55.856Z,10.60
2018-12-04T02:16:23.395Z,10.60
2018-12-04T02:18:50.912Z,10.60
2018-12-04T02:21:18.466Z,10.50
2018-12-04T02:23:45.988Z,10.60
2018-12-04T02:26:13.550Z,10.70
2018-12-04T02:28:41.447Z,10.70
2018-12-04T02:31:09.077Z,10.70
2018-12-04T02:33:36.624Z,10.70
2018-12-04T02:36:04.264Z,10.60
2018-12-04T02:38:31.798Z,10.60
2018-12-04T02:40:59.349Z,10.50
2018-12-04T02:43:26.872Z,10.60
2018-12-04T02:45:54.429Z,10.50
2018-12-04T02:48:21.950Z,10.50
2018-12-04T02:50:49.494Z,10.50
2018-12-04T02:53:17.017Z,10.40
2018-12-04T02:55:44.561Z,10.40
2018-12-04T02:58:12.085Z,10.40
2018-12-04T03:00:39.636Z,10.40
2018-12-04T03:03:07.155Z,10.30
2018-12-04T03:05:34.700Z,10.40
2018-12-04T03:08:02.229Z,10.40
2018-12-04T03:10:29.787Z,10.40
2018-12-04T03:12:57.382Z,10.50
2018-12-04T03:15:24.907Z,10.40
2018-12-04T03:17:52.452Z,10.30
2018-12-04T03:20:19.965Z,10.30
2018-12-04T03:22:47.528Z,10.30
2018-12-04T03:25:15.048Z,10.30
2018-12-04T03:27:42.591Z,10.30
2018-12-04T03:30:10.192Z,10.30
2018-12-04T03:32:37.751Z,10.30
2018-12-04T03:35:05.464Z,10.30
2018-12-04T03:37:33.004Z,10.20
2018-12-04T03:40:00.532Z,10.30
2018-12-04T03:42:28.084Z,10.30
2018-12-04T03:44:55.716Z,10.40
2018-12-04T03:47:23.259Z,10.30
2018-12-04T03:49:50.775Z,10.40
2018-12-04T03:52:18.321Z,10.30
2018-12-04T03:54:45.835Z,10.40
2018-12-04T03:57:13.376Z,10.30
2018-12-04T03:59:40.903Z,10.30
2018-12-04T04:02:08.443Z,10.30
2018-12-04T04:04:35.960Z,10.20
2018-12-04T04:07:03.590Z,10.10
2018-12-04T04:09:31.108Z,10.10
2018-12-04T04:11:58.656Z,10.00
2018-12-04T04:14:26.176Z,10.00
2018-12-04T04:16:53.710Z,9.90
2018-12-04T04:19:21.238Z,10.00
2018-12-04T04:21:48.793Z,10.10
2018-12-04T04:24:16.321Z,10.10
2018-12-04T04:26:43.873Z,10.00
2018-12-04T04:29:11.392Z,9.90
2018-12-04T04:31:38.900Z,9.90
2018-12-04T04:34:06.446Z,9.90
2018-12-04T04:36:33.959Z,9.80
2018-12-04T04:39:01.983Z,9.70
2018-12-04T04:41:29.641Z,9.80
2018-12-04T04:43:57.178Z,9.70
2018-12-04T04:46:24.696Z,9.80
2018-12-04T04:48:52.241Z,9.70
2018-12-04T04:51:19.763Z,9.70
2018-12-04T04:53:47.317Z,9.70
2018-12-04T04:56:14.832Z,9.80
2018-12-04T04:58:42.375Z,9.70
2018-12-04T05:01:09.887Z,9.70
2018-12-04T05:03:37.435Z,9.60
2018-12-04T05:06:04.961Z,9.60
2018-12-04T05:08:32.507Z,9.60
2018-12-04T05:11:00.024Z,9.70
2018-12-04T05:13:27.560Z,9.60
2018-12-04T05:15:55.078Z,9.60
2018-12-04T05:18:22.625Z,9.60
2018-12-04T05:20:50.152Z,9.60
2018-12-04T05:23:17.689Z,9.50
2018-12-04T05:25:45.203Z,9.50
2018-12-04T05:28:12.744Z,9.50
2018-12-04T05:30:40.287Z,9.40
2018-12-04T05:33:07.809Z,9.40
2018-12-04T05:35:35.355Z,9.30
2018-12-04T05:38:02.875Z,9.30
2018-12-04T05:40:30.419Z,9.20
2018-12-04T05:42:57.927Z,9.30
2018-12-04T05:45:25.476Z,9.30
2018-12-04T05:47:52.986Z,9.40
2018-12-04T05:50:20.524Z,9.40
2018-12-04T05:52:52.002Z,9.40
2018-12-04T05:55:19.540Z,9.40
2018-12-04T05:57:47.052Z,9.40
2018-12-04T06:00:14.595Z,9.20
2018-12-04T06:02:42.119Z,9.20
2018-12-04T06:05:09.659Z,9.10
2018-12-04T06:07:37.172Z,9.20
2018-12-04T06:10:05.704Z,9.10
2018-12-04T06:12:33.220Z,9.10
2018-12-04T06:15:00.759Z,9.10
2018-12-04T06:17:28.271Z,9.10
2018-12-04T06:19:55.815Z,9.10
2018-12-04T06:22:23.326Z,9.10
2018-12-04T06:24:50.868Z,8.90
2018-12-04T06:27:18.379Z,8.80
2018-12-04T06:29:45.924Z,8.70
2018-12-04T06:32:13.450Z,8.60
2018-12-04T06:34:41.068Z,8.60
2018-12-04T06:37:08.587Z,8.60
2018-12-04T06:39:36.148Z,8.60
2018-12-04T06:42:03.744Z,8.70
2018-12-04T06:44:31.288Z,8.80
2018-12-04T06:46:58.808Z,8.80
2018-12-04T06:49:27.961Z,8.90
2018-12-04T06:51:55.601Z,8.90
2018-12-04T06:54:23.155Z,8.90
2018-12-04T06:56:50.671Z,8.80
2018-12-04T06:59:18.219Z,8.80
2018-12-04T07:01:45.736Z,8.70
2018-12-04T07:04:13.256Z,8.70
2018-12-04T07:06:40.801Z,8.60
2018-12-04T07:09:08.391Z,8.60
2018-12-04T07:11:35.933Z,8.50
2018-12-04T07:14:03.720Z,8.60
2018-12-04T07:16:31.260Z,8.40
2018-12-04T07:18:58.782Z,8.40
2018-12-04T07:21:26.333Z,8.40
2018-12-04T07:23:53.864Z,8.40
2018-12-04T07:26:21.776Z,8.40
2018-12-04T07:28:49.302Z,8.40
2018-12-04T07:31:16.844Z,8.40
2018-12-04T07:33:46.049Z,8.40
2018-12-04T07:36:13.636Z,8.40
2018-12-04T07:38:41.708Z,8.40
2018-12-04T07:41:09.379Z,8.50
2018-12-04T07:43:36.893Z,8.50
2018-12-04T07:46:04.456Z,8.50
2018-12-04T07:48:31.976Z,8.50
2018-12-04T07:50:59.524Z,8.50
2018-12-04T07:53:27.049Z,8.50
2018-12-04T07:55:54.618Z,8.40
2018-12-04T07:58:22.135Z,8.30
2018-12-04T08:00:49.683Z,8.40
2018-12-04T08:03:17.204Z,8.40
2018-12-04T08:05:44.779Z,8.30
2018-12-04T08:08:12.294Z,8.30
2018-12-04T08:10:39.830Z,8.30
2018-12-04T08:13:07.351Z,8.30
2018-12-04T08:15:34.932Z,8.40
2018-12-04T08:18:02.545Z,8.40
2018-12-04T08:20:33.236Z,8.50
2018-12-04T08:23:00.847Z,8.60
2018-12-04T08:25:28.384Z,8.60
2018-12-04T08:27:55.896Z,8.70
2018-12-04T08:30:23.444Z,8.80
2018-12-04T08:32:51.084Z,8.80
2018-12-04T08:35:18.624Z,8.90
2018-12-04T08:37:46.147Z,8.80
2018-12-04T08:40:13.757Z,8.70
2018-12-04T08:42:41.275Z,8.70
2018-12-04T08:45:08.890Z,8.70
2018-12-04T08:47:36.460Z,8.70
2018-12-04T08:50:05.302Z,8.80
2018-12-04T08:52:32.850Z,8.70
2018-12-04T08:55:00.378Z,8.80
2018-12-04T08:57:27.917Z,8.90
2018-12-04T08:59:55.434Z,8.90
2018-12-04T09:02:22.982Z,8.90
2018-12-04T09:04:50.600Z,8.90
2018-12-04T09:07:18.140Z,9.00
2018-12-04T09:09:45.658Z,9.00
2018-12-04T09:12:13.211Z,9.10
2018-12-04T09:14:40.763Z,9.20
2018-12-04T09:17:08.306Z,9.40
2018-12-04T09:19:35.844Z,9.50
2018-12-04T09:22:03.593Z,9.70
2018-12-04T09:24:31.340Z,9.70
2018-12-04T09:27:05.089Z,9.90
2018-12-04T09:29:28.557Z,9.90
2018-12-04T09:31:56.267Z,10.00
2018-12-04T09:34:29.704Z,10.10
2018-12-04T09:36:53.355Z,10.20
2018-12-04T09:39:20.873Z,10.30
2018-12-04T09:41:48.420Z,10.30
2018-12-04T09:44:15.943Z,10.40
2018-12-04T09:46:43.510Z,10.40
2018-12-04T09:49:11.030Z,10.30
2018-12-04T09:51:38.572Z,10.40
2018-12-04T09:54:06.663Z,10.30
2018-12-04T09:56:34.255Z,10.30
2018-12-04T09:59:01.776Z,10.30
2018-12-04T10:01:29.331Z,10.40
2018-12-04T10:03:56.862Z,10.40
2018-12-04T10:06:24.492Z,10.50
2018-12-04T10:08:52.007Z,10.60
2018-12-04T10:11:19.570Z,10.50
2018-12-04T10:13:47.093Z,10.60
2018-12-04T10:16:14.636Z,10.70
2018-12-04T10:18:47.465Z,10.60
2018-12-04T10:21:11.836Z,10.70
2018-12-04T10:23:39.358Z,10.70
2018-12-04T10:26:06.914Z,10.70
2018-12-04T10:28:34.432Z,10.80
2018-12-04T10:31:07.775Z,10.70
2018-12-04T10:33:35.306Z,10.70
2018-12-04T10:36:02.847Z,10.60
2018-12-04T10:38:30.388Z,10.70
2018-12-04T10:40:57.907Z,10.70
2018-12-04T10:43:25.464Z,10.70
2018-12-04T10:45:52.985Z,10.60
2018-12-04T10:48:20.540Z,10.50
2018-12-04T10:50:48.064Z,10.50
2018-12-04T10:53:15.629Z,10.60
2018-12-04T10:55:43.151Z,10.60
2018-12-04T10:58:10.708Z,10.70
2018-12-04T11:00:40.216Z,10.70
2018-12-04T11:03:11.732Z,10.70
2018-12-04T11:05:40.154Z,10.60
2018-12-04T11:08:07.706Z,10.60
2018-12-04T11:10:35.223Z,10.70
2018-12-04T11:13:02.781Z,10.60
2018-12-04T11:15:30.304Z,10.60
2018-12-04T11:17:57.915Z,10.50
2018-12-04T11:20:25.444Z,10.40
2018-12-04T11:22:54.695Z,10.00
2018-12-04T11:25:22.291Z,9.80
2018-12-04T11:27:49.925Z,9.50
2018-12-04T11:30:17.481Z,9.50
2018-12-04T11:32:45.059Z,9.60
2018-12-04T11:35:12.581Z,9.60
2018-12-04T11:37:40.120Z,9.40
2018-12-04T11:40:07.728Z,9.40
2018-12-04T11:42:35.303Z,9.30
2018-12-04T11:45:02.841Z,9.30
2018-12-04T11:47:30.393Z,9.50
2018-12-04T11:49:58.408Z,9.50
2018-12-04T11:52:26.132Z,9.50
2018-12-04T11:54:53.777Z,9.60
2018-12-04T11:57:21.401Z,9.80
2018-12-04T11:59:50.845Z,10.00
2018-12-04T12:02:18.911Z,10.00
2018-12-04T12:04:46.433Z,10.00
2018-12-04T12:07:14.097Z,10.20
2018-12-04T12:09:41.620Z,10.30
2018-12-04T12:12:09.170Z,10.30
2018-12-04T12:14:39.425Z,10.10
2018-12-04T12:17:07.183Z,10.00
2018-12-04T12:19:34.709Z,9.60
2018-12-04T12:22:02.230Z,9.50
2018-12-04T12:24:29.801Z,9.50
2018-12-04T12:26:57.312Z,9.50
2018-12-04T12:29:24.848Z,9.50
2018-12-04T12:31:52.363Z,9.50
2018-12-04T12:34:23.506Z,9.50
2018-12-04T12:36:49.600Z,9.40
2018-12-04T12:39:17.280Z,9.60
2018-12-04T12:41:44.807Z,9.60
2018-12-04T12:44:12.378Z,9.60
2018-12-04T12:46:39.900Z,9.60
2018-12-04T12:49:07.583Z,9.50
2018-12-04T12:51:35.100Z,9.50
2018-12-04T12:54:02.659Z,9.60
2018-12-04T12:56:30.488Z,9.70
2018-12-04T12:58:58.074Z,9.70
2018-12-04T13:01:25.899Z,9.80
2018-12-04T13:03:53.469Z,9.90
2018-12-04T13:06:21.124Z,9.90
2018-12-04T13:08:48.844Z,9.90
2018-12-04T13:11:16.368Z,9.80
2018-12-04T13:13:44.128Z,9.80
2018-12-04T13:16:11.776Z,9.70
2018-12-04T13:18:39.362Z,9.70
2018-12-04T13:21:07.004Z,9.60
2018-12-04T13:23:37.129Z,9.70
2018-12-04T13:26:04.687Z,9.80
2018-12-04T13:28:32.285Z,9.90
2018-12-04T13:30:59.832Z,9.90
2018-12-04T13:33:27.376Z,9.90
2018-12-04T13:35:54.961Z,9.90
2018-12-04T13:38:22.515Z,10.00
2018-12-04T13:40:50.031Z,9.90
2018-12-04T13:43:17.648Z,9.80
2018-12-04T13:45:45.248Z,9.80
2018-12-04T13:48:13.028Z,9.70
2018-12-04T13:50:40.571Z,9.70
2018-12-04T13:53:08.121Z,9.80
2018-12-04T13:55:35.843Z,9.80
2018-12-04T13:58:03.578Z,9.70
2018-12-04T14:00:31.322Z,9.60
2018-12-04T14:02:58.881Z,9.40
2018-12-04T14:05:27.040Z,9.10
2018-12-04T14:07:54.964Z,9.00
2018-12-04T14:10:22.568Z,8.80
2018-12-04T14:12:50.117Z,8.90
2018-12-04T14:15:17.709Z,9.00
2018-12-04T14:17:45.382Z,9.00
2018-12-04T14:20:13.012Z,9.00
2018-12-04T14:22:40.542Z,9.10
2018-12-04T14:25:08.464Z,9.10
2018-12-04T14:27:36.269Z,9.10
2018-12-04T14:30:06.718Z,9.30
2018-12-04T14:32:34.365Z,9.20
2018-12-04T14:35:02.007Z,9.10
2018-12-04T14:37:29.579Z,9.20
2018-12-04T14:39:57.239Z,9.20
2018-12-04T14:42:24.949Z,9.20
2018-12-04T14:44:52.638Z,9.20
2018-12-04T14:47:20.251Z,9.10
2018-12-04T14:49:47.914Z,9.20
2018-12-04T14:52:15.520Z,9.20
2018-12-04T14:54:43.103Z,9.10
2018-12-04T14:57:10.749Z,9.00
2018-12-04T14:59:38.300Z,9.10
2018-12-04T15:02:05.854Z,9.10
2018-12-04T15:04:33.516Z,9.00
2018-12-04T15:07:01.160Z,8.90
2018-12-04T15:09:28.706Z,8.80
2018-12-04T15:11:56.244Z,8.80
2018-12-04T15:14:23.999Z,8.80
2018-12-04T15:16:54.995Z,8.70
2018-12-04T15:19:21.077Z,8.70
2018-12-04T15:21:48.637Z,8.60
2018-12-04T15:24:16.217Z,8.60
2018-12-04T15:26:44.032Z,8.50
2018-12-04T15:29:11.553Z,8.40
2018-12-04T15:31:39.268Z,8.40
2018-12-04T15:34:06.978Z,8.40
2018-12-04T15:36:34.572Z,8.40
2018-12-04T15:39:02.451Z,8.20
2018-12-04T15:41:30.045Z,8.20
2018-12-04T15:43:57.693Z,8.10
2018-12-04T15:46:25.364Z,8.00
2018-12-04T15:48:52.972Z,8.00
2018-12-04T15:51:20.525Z,7.90
2018-12-04T15:53:48.072Z,7.80
2018-12-04T15:56:15.737Z,7.70
2018-12-04T15:58:43.259Z,7.80
2018-12-04T16:01:10.884Z,7.70
2018-12-04T16:03:38.404Z,7.60
2018-12-04T16:06:05.953Z,7.50
2018-12-04T16:08:33.475Z,7.60
2018-12-04T16:11:01.032Z,7.50
2018-12-04T16:13:28.552Z,7.50
2018-12-04T16:15:56.109Z,7.40
2018-12-04T16:18:23.640Z,7.20
2018-12-04T16:20:51.192Z,7.20
2018-12-04T16:23:18.715Z,7.10
2018-12-04T16:25:46.264Z,7.00
2018-12-04T16:28:13.784Z,6.90
2018-12-04T16:30:41.412Z,6.80
2018-12-04T16:33:08.932Z,6.80
2018-12-04T16:35:36.484Z,6.70
2018-12-04T16:38:04.011Z,6.70
2018-12-04T16:40:31.564Z,6.70
2018-12-04T16:42:59.079Z,6.60
2018-12-04T16:45:26.628Z,6.50
2018-12-04T16:47:54.151Z,6.50
2018-12-04T16:50:21.692Z,6.50
2018-12-04T16:52:49.217Z,6.50
2018-12-04T16:55:16.751Z,6.50
2018-12-04T16:57:44.308Z,6.40
2018-12-04T17:00:12.309Z,6.40
2018-12-04T17:02:39.852Z,6.20
2018-12-04T17:05:07.469Z,6.10
2018-12-04T17:07:35.012Z,6.20
2018-12-04T17:10:02.612Z,6.10
2018-12-04T17:12:30.166Z,6.10
2018-12-04T17:14:57.688Z,6.00
2018-12-04T17:17:25.421Z,5.90
2018-12-04T17:19:52.942Z,5.80
2018-12-04T17:22:20.489Z,5.90
2018-12-04T17:24:48.008Z,5.90
2018-12-04T17:27:15.565Z,5.80
2018-12-04T17:29:43.079Z,5.80
2018-12-04T17:32:10.622Z,5.60
2018-12-04T17:34:38.143Z,5.50
2018-12-04T17:37:05.778Z,5.40
2018-12-04T17:39:33.295Z,5.40
2018-12-04T17:42:01.029Z,5.30
2018-12-04T17:44:28.551Z,5.30
2018-12-04T17:46:56.101Z,5.30
2018-12-04T17:49:23.621Z,5.20
2018-12-04T17:51:51.248Z,5.20
2018-12-04T17:54:18.895Z,5.20
2018-12-04T17:56:46.442Z,5.10
2018-12-04T17:59:13.972Z,5.00
2018-12-04T18:01:41.521Z,4.90
2018-12-04T18:04:09.043Z,4.90
2018-12-04T18:06:36.596Z,4.90
2018-12-04T18:09:06.176Z,4.80
2018-12-04T18:11:33.802Z,4.80
2018-12-04T18:14:01.324Z,4.80
2018-12-04T18:16:28.884Z,4.80
2018-12-04T18:18:56.406Z,4.80
2018-12-04T18:21:24.947Z,4.80
2018-12-04T18:23:52.468Z,4.80
2018-12-04T18:26:20.048Z,4.70
2018-12-04T18:28:47.570Z,4.60
2018-12-04T18:31:15.187Z,4.60
2018-12-04T18:33:42.714Z,4.60
2018-12-04T18:36:10.235Z,4.60
2018-12-04T18:38:38.247Z,4.50
2018-12-04T18:41:05.797Z,4.60
2018-12-04T18:43:33.348Z,4.40
2018-12-04T18:46:00.867Z,4.40
2018-12-04T18:48:28.424Z,4.40
2018-12-04T18:50:55.969Z,4.30
2018-12-04T18:53:23.522Z,4.30
2018-12-04T18:55:51.123Z,4.30
2018-12-04T18:58:18.707Z,4.20
2018-12-04T19:00:46.235Z,4.20
2018-12-04T19:03:13.878Z,4.20
2018-12-04T19:05:41.411Z,4.30
2018-12-04T19:08:08.965Z,4.30
2018-12-04T19:10:36.502Z,4.20
2018-12-04T19:13:04.052Z,4.10
2018-12-04T19:15:31.660Z,4.10
2018-12-04T19:17:59.229Z,4.00
2018-12-04T19:20:26.743Z,3.90
2018-12-04T19:22:54.287Z,4.00
2018-12-04T19:25:21.825Z,4.10
2018-12-04T19:27:49.376Z,4.20
2018-12-04T19:30:17.080Z,4.20
2018-12-04T19:32:44.634Z,4.20
2018-12-04T19:35:12.264Z,4.20
2018-12-04T19:37:39.896Z,4.00
2018-12-04T19:40:08.592Z,3.90
2018-12-04T19:42:36.237Z,3.90
2018-12-04T19:45:04.636Z,3.80
2018-12-04T19:47:32.223Z,3.70
2018-12-04T19:49:59.756Z,3.70
2018-12-04T19:52:27.309Z,3.70
2018-12-04T19:54:54.827Z,3.80
2018-12-04T19:57:22.397Z,3.90
2018-12-04T19:59:50.871Z,3.80
2018-12-04T20:02:18.441Z,3.70
2018-12-04T20:04:45.974Z,3.70
2018-12-04T20:07:13.536Z,3.70
2018-12-04T20:09:41.084Z,3.60
2018-12-04T20:12:08.660Z,3.60
2018-12-04T20:14:36.194Z,3.50
2018-12-04T20:17:03.825Z,3.50
2018-12-04T20:19:31.381Z,3.40
2018-12-04T20:21:58.908Z,3.40
2018-12-04T20:24:26.461Z,3.30
2018-12-04T20:26:53.992Z,3.30
2018-12-04T20:29:21.539Z,3.40
2018-12-04T20:31:49.055Z,3.40
2018-12-04T20:34:16.603Z,3.30
2018-12-04T20:36:44.132Z,3.40
2018-12-04T20:39:11.676Z,3.50
2018-12-04T20:41:39.211Z,3.60
2018-12-04T20:44:06.757Z,3.40
2018-12-04T20:46:34.377Z,3.50
2018-12-04T20:49:01.940Z,3.60
2018-12-04T20:51:30.452Z,3.70
2018-12-04T20:53:58.012Z,3.60
2018-12-04T20:56:25.545Z,3.70
2018-12-04T20:58:53.183Z,3.70
2018-12-04T21:01:20.700Z,3.70
2018-12-04T21:03:48.244Z,3.70
2018-12-04T21:06:15.763Z,3.70
2018-12-04T21:08:43.304Z,3.70
2018-12-04T21:11:10.825Z,3.70
2018-12-04T21:13:38.380Z,3.70
2018-12-04T21:16:05.906Z,3.70
2018-12-04T21:18:33.452Z,3.70
2018-12-04T21:21:00.985Z,3.70
2018-12-04T21:23:28.516Z,3.70
2018-12-04T21:25:56.077Z,3.70
2018-12-04T21:28:23.602Z,3.70
2018-12-04T21:34:01.141Z,3.60
2018-12-04T21:36:34.266Z,3.50
2018-12-04T21:39:16.558Z,3.50
2018-12-04T21:41:49.672Z,3.50
2018-12-04T21:44:22.939Z,3.30
2018-12-04T21:46:56.099Z,3.30
2018-12-04T21:49:24.612Z,3.30
2018-12-04T21:51:52.144Z,3.30
2018-12-04T21:54:19.780Z,3.40
2018-12-04T21:56:47.299Z,3.40
2018-12-04T21:59:14.813Z,3.40
2018-12-04T22:01:43.015Z,3.40
2018-12-04T22:04:10.544Z,3.50
2018-12-04T22:06:38.100Z,3.40
2018-12-04T22:09:06.787Z,3.40
2018-12-04T22:11:34.828Z,3.40
2018-12-04T22:14:02.436Z,3.50
2018-12-04T22:16:29.986Z,3.50
2018-12-04T22:18:57.505Z,3.50
2018-12-04T22:21:25.051Z,3.40
2018-12-04T22:23:52.587Z,3.40
2018-12-04T22:26:20.133Z,3.30
2018-12-04T22:28:47.652Z,3.40
2018-12-04T22:31:15.203Z,3.40
2018-12-04T22:33:42.720Z,3.50
2018-12-04T22:36:10.259Z,3.60
2018-12-04T22:38:37.784Z,3.70
2018-12-04T22:41:05.338Z,3.80
2018-12-04T22:43:32.858Z,3.80
2018-12-04T22:46:00.417Z,3.80
2018-12-04T22:48:27.938Z,3.80
2018-12-04T22:50:55.564Z,3.90
2018-12-04T22:53:23.083Z,3.90
2018-12-04T22:55:50.623Z,3.90
2018-12-04T22:58:18.145Z,3.90
2018-12-04T23:00:46.060Z,3.90
2018-12-04T23:03:13.580Z,3.90
2018-12-04T23:05:41.127Z,4.10
2018-12-04T23:08:08.647Z,4.10
2018-12-04T23:10:36.198Z,4.10
2018-12-04T23:13:03.803Z,4.10
2018-12-04T23:15:31.344Z,4.10
2018-12-04T23:17:58.892Z,4.10
2018-12-04T23:20:26.404Z,4.00
2018-12-04T23:22:53.957Z,4.00
2018-12-04T23:25:21.479Z,4.00
2018-12-04T23:27:49.027Z,4.00
2018-12-04T23:30:16.541Z,4.00
2018-12-04T23:32:44.083Z,4.00
2018-12-04T23:35:11.680Z,4.10
2018-12-04T23:37:39.223Z,4.20
2018-12-04T23:40:06.908Z,4.10
2018-12-04T23:42:34.447Z,4.00
2018-12-04T23:45:01.969Z,4.00
2018-12-04T23:47:29.608Z,4.10
2018-12-04T23:49:57.125Z,4.20
2018-12-04T23:52:24.674Z,4.20
2018-12-04T23:54:52.194Z,4.20
2018-12-04T23:57:19.740Z,4.20
2018-12-04T23:59:47.254Z,4.20
